Terminal Aerodrome Forecast
Issued by NWS

Current Version | Previous Version | Graphics & Text | Print | Product List | Glossary On
Versions: 1 2 3 4 5 6 7 8 9 10 11 12 13 14 15 16 17 18
000
FTUS41 KILN 190540
TAFLCK
TAF
KLCK 190540Z 1906/2006 14009KT P6SM BKN250
     FM190800 16007KT P6SM BKN035 WS020/21040KT
     FM191100 18009KT 2SM SHRA VCTS OVC007CB WS020/21040KT
     FM191600 19009KT 3SM -SHRA OVC004
     FM192000 20011G19KT P6SM SCT015 OVC035
     FM200300 19010KT P6SM SCT035 BKN250 WS020/21040KT=

USA.gov is the U.S. government's official web portal to all federal, state and local government web resources and services.